Time;durP1;ratioP1;P1;durP2;ratioP2;P2;SDS_P1;SDS_P2;PMS_P1;PMS_P2;Temp;Humidity;BMP_temperature;BMP_pressure;BME280_temperature;BME280_humidity;BME280_pressure;Samples;Min_cycle;Max_cycle;Signal;HPM_P1;HPM_P2
2022/10/03 00:01:36;;;;;;;;;;;18.00;99.90;;;;;;5064218;28;19908;-12
2022/10/03 00:04:28;;;;;;;;;;;18.00;99.90;;;;;;5080423;28;20192;-12
2022/10/03 00:07:10;;;;;;;;;;;17.90;99.90;;;;;;5041389;28;19924;-12
2022/10/03 00:09:55;;;;;;;;;;;18.00;99.90;;;;;;5081106;28;19927;-12
2022/10/03 00:12:30;;;;;;;;;;;17.90;99.90;;;;;;5081205;28;19908;-12
2022/10/03 00:15:06;;;;;;;;;;;17.90;99.90;;;;;;5081214;28;19923;-12
2022/10/03 00:18:04;;;;;;;;;;;17.90;99.90;;;;;;5062752;28;20189;-12
2022/10/03 00:20:42;;;;;;;;;;;17.90;99.90;;;;;;5024831;28;19922;-12
2022/10/03 00:23:28;;;;;;;;;;;17.90;99.90;;;;;;5063160;28;19909;-12
2022/10/03 00:26:00;;;;;;;;;;;17.90;99.90;;;;;;5013176;28;19913;-12
2022/10/03 00:28:26;;;;;;;;;;;17.90;99.90;;;;;;5080533;28;19948;-12
2022/10/03 00:30:54;;;;;;;;;;;17.80;99.90;;;;;;5080779;28;19959;-12
2022/10/03 00:33:39;;;;;;;;;;;17.90;99.90;;;;;;5080518;28;19931;-12
2022/10/03 00:36:11;;;;;;;;;;;17.90;99.90;;;;;;5080918;28;19966;-12
2022/10/03 00:38:36;;;;;;;;;;;17.90;99.90;;;;;;5063353;28;19909;-12
2022/10/03 00:41:08;;;;;;;;;;;17.80;99.90;;;;;;5081107;28;20146;-12
2022/10/03 00:43:45;;;;;;;;;;;17.80;99.90;;;;;;5062539;28;19947;-12
2022/10/03 00:46:10;;;;;;;;;;;17.80;99.90;;;;;;5062321;28;19909;-12
2022/10/03 00:48:48;;;;;;;;;;;17.80;99.90;;;;;;5062698;28;19920;-12
2022/10/03 00:51:29;;;;;;;;;;;17.80;99.90;;;;;;5079687;28;19920;-12
2022/10/03 00:54:01;;;;;;;;;;;17.80;99.90;;;;;;5079333;28;20018;-12
2022/10/03 00:56:29;;;;;;;;;;;17.80;99.90;;;;;;5062645;28;19908;-12
2022/10/03 00:59:11;;;;;;;;;;;17.80;99.90;;;;;;5062599;28;19909;-12
2022/10/03 01:01:43;;;;;;;;;;;17.80;99.90;;;;;;5062515;28;20285;-12
2022/10/03 01:04:12;;;;;;;;;;;17.80;99.90;;;;;;5079871;28;19908;-12
2022/10/03 01:06:55;;;;;;;;;;;17.70;99.90;;;;;;5062605;28;19912;-12
2022/10/03 01:09:40;;;;;;;;;;;17.80;99.90;;;;;;5062813;28;20323;-12
2022/10/03 01:12:08;;;;;;;;;;;17.80;99.90;;;;;;5080079;28;19912;-12
2022/10/03 01:14:43;;;;;;;;;;;17.70;99.90;;;;;;5062602;28;20262;-12
2022/10/03 01:17:14;;;;;;;;;;;17.70;99.90;;;;;;5063358;28;19908;-12
2022/10/03 01:19:47;;;;;;;;;;;17.70;99.90;;;;;;5062529;28;20290;-12
2022/10/03 01:22:39;;;;;;;;;;;17.70;99.90;;;;;;5079811;28;20181;-12
2022/10/03 01:25:05;;;;;;;;;;;17.70;99.90;;;;;;5079748;28;19924;-12
2022/10/03 01:30:21;;;;;;;;;;;17.70;99.90;;;;;;5080377;28;19917;-12
2022/10/03 01:30:22;;;;;;;;;;;17.70;99.90;;;;;;5079700;28;19908;-12
2022/10/03 01:33:08;;;;;;;;;;;17.70;99.90;;;;;;5079059;28;19939;-12
2022/10/03 01:35:52;;;;;;;;;;;17.70;99.90;;;;;;5062339;28;20030;-12
2022/10/03 01:38:19;;;;;;;;;;;17.70;99.90;;;;;;5079439;28;20572;-12
2022/10/03 01:40:49;;;;;;;;;;;17.70;99.90;;;;;;5079483;28;19973;-12
2022/10/03 01:43:19;;;;;;;;;;;17.70;99.90;;;;;;5080362;28;19917;-12
2022/10/03 01:45:53;;;;;;;;;;;17.60;99.90;;;;;;5079661;28;19908;-12
2022/10/03 01:48:19;;;;;;;;;;;17.60;99.90;;;;;;5062270;28;20008;-12
2022/10/03 01:50:57;;;;;;;;;;;17.60;99.90;;;;;;5061857;28;19948;-12
2022/10/03 01:53:33;;;;;;;;;;;17.60;99.90;;;;;;5061817;28;20366;-12
2022/10/03 01:56:04;;;;;;;;;;;17.60;99.90;;;;;;5079078;28;19912;-12
2022/10/03 01:58:35;;;;;;;;;;;17.60;99.90;;;;;;5079395;28;19913;-12
2022/10/03 02:01:07;;;;;;;;;;;17.60;99.90;;;;;;5079380;28;19919;-12
2022/10/03 02:03:36;;;;;;;;;;;17.60;99.90;;;;;;5079280;28;19915;-12
2022/10/03 02:06:02;;;;;;;;;;;17.60;99.90;;;;;;5079244;28;19908;-12
2022/10/03 02:08:34;;;;;;;;;;;17.60;99.90;;;;;;5079511;28;19909;-12
2022/10/03 02:11:01;;;;;;;;;;;17.60;99.90;;;;;;5079112;28;19909;-12
2022/10/03 02:13:43;;;;;;;;;;;17.60;99.90;;;;;;5061253;28;19908;-12
2022/10/03 02:16:21;;;;;;;;;;;17.60;99.90;;;;;;5079302;28;19920;-12
2022/10/03 02:19:04;;;;;;;;;;;17.60;99.90;;;;;;5078944;28;19908;-12
2022/10/03 02:21:32;;;;;;;;;;;17.60;99.80;;;;;;5078932;28;19909;-12
2022/10/03 02:24:21;;;;;;;;;;;17.60;99.80;;;;;;5079616;28;20189;-12
2022/10/03 02:26:50;;;;;;;;;;;17.50;99.80;;;;;;5065525;28;19982;-12
2022/10/03 02:29:22;;;;;;;;;;;17.50;99.80;;;;;;5078623;28;19908;-12
2022/10/03 02:32:06;;;;;;;;;;;17.50;99.80;;;;;;5079012;28;19958;-12
2022/10/03 02:34:52;;;;;;;;;;;17.50;99.80;;;;;;5061450;28;19930;-12
2022/10/03 02:37:26;;;;;;;;;;;17.50;99.70;;;;;;5078557;28;20015;-12
2022/10/03 02:40:10;;;;;;;;;;;17.50;99.80;;;;;;5078634;28;19916;-12
2022/10/03 02:42:36;;;;;;;;;;;17.50;99.70;;;;;;5078887;28;20189;-12
2022/10/03 02:45:28;;;;;;;;;;;17.50;99.70;;;;;;5078631;28;20309;-12
2022/10/03 02:47:54;;;;;;;;;;;17.50;99.70;;;;;;5040258;28;19924;-12
2022/10/03 02:50:37;;;;;;;;;;;17.50;99.70;;;;;;5060758;28;19920;-12
2022/10/03 02:53:24;;;;;;;;;;;17.50;99.70;;;;;;5078332;28;19916;-12
2022/10/03 02:56:06;;;;;;;;;;;17.40;99.70;;;;;;5078324;28;19935;-12
2022/10/03 02:58:32;;;;;;;;;;;17.40;99.90;;;;;;5078286;28;19958;-12
2022/10/03 03:01:03;;;;;;;;;;;17.40;99.70;;;;;;5078298;28;19995;-12
2022/10/03 03:03:49;;;;;;;;;;;17.40;99.60;;;;;;5078674;28;19908;-12
2022/10/03 03:06:28;;;;;;;;;;;17.40;99.60;;;;;;5067693;28;19920;-12
2022/10/03 03:08:57;;;;;;;;;;;17.40;99.60;;;;;;5077985;28;19908;-12
2022/10/03 03:11:41;;;;;;;;;;;17.40;99.60;;;;;;5078441;28;20190;-12
2022/10/03 03:14:18;;;;;;;;;;;17.40;99.60;;;;;;5078127;28;19974;-12
2022/10/03 03:16:51;;;;;;;;;;;17.40;99.60;;;;;;5077807;28;19944;-12
2022/10/03 03:19:35;;;;;;;;;;;17.40;99.50;;;;;;5060790;28;19931;-12
2022/10/03 03:22:01;;;;;;;;;;;17.40;99.50;;;;;;5077601;28;19908;-12
2022/10/03 03:24:40;;;;;;;;;;;17.40;99.50;;;;;;5060586;28;19993;-12
2022/10/03 03:27:30;;;;;;;;;;;17.40;99.40;;;;;;5077823;28;19909;-12
2022/10/03 03:30:08;;;;;;;;;;;17.40;99.40;;;;;;5077846;28;19915;-12
2022/10/03 03:32:52;;;;;;;;;;;17.40;99.70;;;;;;5060503;28;19956;-12
2022/10/03 03:35:23;;;;;;;;;;;17.40;99.40;;;;;;5077918;28;19959;-12
2022/10/03 03:38:29;;;;;;;;;;;17.40;99.40;;;;;;5060480;28;19920;-12
2022/10/03 03:40:57;;;;;;;;;;;17.40;99.40;;;;;;4977057;28;19925;-12
2022/10/03 03:43:42;;;;;;;;;;;17.40;99.30;;;;;;4977335;28;19911;-12
2022/10/03 03:46:20;;;;;;;;;;;17.40;99.30;;;;;;5023123;28;19908;-12
2022/10/03 03:49:08;;;;;;;;;;;17.30;99.30;;;;;;5060168;28;19924;-12
2022/10/03 03:51:37;;;;;;;;;;;17.40;99.30;;;;;;5077219;28;19924;-12
2022/10/03 03:54:22;;;;;;;;;;;17.30;99.30;;;;;;5060476;28;19930;-12
2022/10/03 03:56:54;;;;;;;;;;;17.30;99.30;;;;;;5078107;28;19923;-12
2022/10/03 03:59:22;;;;;;;;;;;17.30;99.20;;;;;;5077817;28;19908;-12
2022/10/03 04:02:06;;;;;;;;;;;17.30;99.20;;;;;;5077712;28;19908;-12
2022/10/03 04:04:38;;;;;;;;;;;17.30;99.30;;;;;;5077204;28;19908;-12
2022/10/03 04:07:22;;;;;;;;;;;17.30;99.20;;;;;;5077452;28;20003;-12
2022/10/03 04:09:58;;;;;;;;;;;17.30;99.20;;;;;;5077703;28;20278;-12
2022/10/03 04:12:42;;;;;;;;;;;17.30;99.20;;;;;;5077089;28;19908;-12
2022/10/03 04:15:27;;;;;;;;;;;17.30;99.20;;;;;;5060392;28;19923;-12
2022/10/03 04:21:22;;;;;;;;;;;17.30;99.20;;;;;;4976992;28;20328;-12
2022/10/03 04:23:49;;;;;;;;;;;17.30;99.20;;;;;;5045946;28;19908;-12
2022/10/03 04:26:30;;;;;;;;;;;17.30;99.20;;;;;;5077305;28;20006;-12
2022/10/03 04:29:16;;;;;;;;;;;17.30;99.20;;;;;;5043372;28;19919;-12
2022/10/03 04:31:54;;;;;;;;;;;17.30;99.20;;;;;;5059600;28;19919;-12
2022/10/03 04:34:26;;;;;;;;;;;17.20;99.10;;;;;;5059716;28;19912;-12
2022/10/03 04:36:58;;;;;;;;;;;17.30;99.20;;;;;;5080815;28;19908;-12
2022/10/03 04:39:42;;;;;;;;;;;17.20;99.10;;;;;;5063992;28;19920;-12
2022/10/03 04:42:16;;;;;;;;;;;17.30;99.10;;;;;;5080907;28;19948;-12
2022/10/03 04:44:42;;;;;;;;;;;17.20;99.10;;;;;;5063645;28;19912;-12
2022/10/03 04:47:15;;;;;;;;;;;17.20;99.10;;;;;;5062720;28;19908;-12
2022/10/03 04:49:52;;;;;;;;;;;17.20;99.10;;;;;;5080341;28;19916;-12
2022/10/03 04:52:19;;;;;;;;;;;17.20;99.10;;;;;;5080181;28;19940;-12
2022/10/03 04:54:47;;;;;;;;;;;17.20;99.10;;;;;;5062670;28;19916;-12
2022/10/03 04:57:31;;;;;;;;;;;17.20;99.10;;;;;;5063460;28;20323;-12
2022/10/03 05:00:15;;;;;;;;;;;17.20;99.30;;;;;;5080613;28;19916;-12
2022/10/03 05:02:46;;;;;;;;;;;17.20;99.00;;;;;;5080402;28;19989;-12
2022/10/03 05:05:26;;;;;;;;;;;17.20;99.30;;;;;;5063265;28;19948;-12
2022/10/03 05:08:04;;;;;;;;;;;17.20;99.00;;;;;;5062938;28;19909;-12
2022/10/03 05:10:45;;;;;;;;;;;17.20;99.00;;;;;;5080145;28;20293;-12
2022/10/03 05:13:15;;;;;;;;;;;17.20;99.00;;;;;;5079673;28;19908;-12
2022/10/03 05:15:46;;;;;;;;;;;17.20;99.00;;;;;;5079647;28;19913;-12
2022/10/03 05:18:35;;;;;;;;;;;17.20;99.00;;;;;;5063102;28;19909;-12
2022/10/03 05:21:01;;;;;;;;;;;17.20;99.00;;;;;;5062348;28;19908;-12
2022/10/03 05:23:41;;;;;;;;;;;17.10;98.90;;;;;;5062498;28;19915;-12
2022/10/03 05:26:30;;;;;;;;;;;17.10;98.90;;;;;;5062075;28;20438;-12
2022/10/03 05:29:14;;;;;;;;;;;17.10;99.20;;;;;;5062188;28;19998;-12
2022/10/03 05:31:39;;;;;;;;;;;17.10;98.90;;;;;;5062256;28;19920;-12
2022/10/03 05:34:28;;;;;;;;;;;17.10;98.90;;;;;;5080160;28;19913;-12
2022/10/03 05:37:06;;;;;;;;;;;17.10;98.90;;;;;;5062532;28;19908;-12
2022/10/03 05:39:50;;;;;;;;;;;17.10;98.90;;;;;;5079657;28;19951;-12
2022/10/03 05:42:19;;;;;;;;;;;17.10;98.90;;;;;;5079475;28;19912;-12
2022/10/03 05:44:52;;;;;;;;;;;17.10;98.90;;;;;;5079373;28;19912;-12
2022/10/03 05:50:14;;;;;;;;;;;17.10;98.80;;;;;;5079175;28;20003;-12
2022/10/03 05:53:06;;;;;;;;;;;17.10;98.80;;;;;;5061676;28;19978;-12
2022/10/03 05:55:43;;;;;;;;;;;17.10;98.80;;;;;;5042957;28;20197;-12
2022/10/03 05:58:09;;;;;;;;;;;17.10;98.80;;;;;;5078034;28;19919;-12
2022/10/03 06:00:35;;;;;;;;;;;17.10;98.80;;;;;;5078569;28;19912;-12
2022/10/03 06:03:20;;;;;;;;;;;17.10;98.70;;;;;;5078567;28;19919;-12
2022/10/03 06:06:06;;;;;;;;;;;17.10;98.70;;;;;;5078772;28;19914;-12
2022/10/03 06:08:36;;;;;;;;;;;17.20;98.70;;;;;;5078812;28;20270;-12
2022/10/03 06:11:40;;;;;;;;;;;17.20;98.60;;;;;;5061388;28;20175;-12
2022/10/03 06:14:23;;;;;;;;;;;17.20;98.50;;;;;;4962084;28;19918;-12
2022/10/03 06:16:58;;;;;;;;;;;17.30;98.40;;;;;;4977979;28;19910;-12
2022/10/03 06:19:40;;;;;;;;;;;17.20;98.30;;;;;;5041134;28;19909;-12
2022/10/03 06:22:27;;;;;;;;;;;17.30;98.30;;;;;;5077899;28;19909;-12
2022/10/03 06:25:11;;;;;;;;;;;17.30;98.20;;;;;;5060433;28;19908;-12
2022/10/03 06:27:55;;;;;;;;;;;17.30;98.10;;;;;;5060384;28;19966;-12
2022/10/03 06:30:23;;;;;;;;;;;17.40;98.00;;;;;;5060534;28;19952;-12
2022/10/03 06:33:00;;;;;;;;;;;17.50;97.80;;;;;;5077818;28;20442;-12
2022/10/03 06:35:45;;;;;;;;;;;17.70;97.30;;;;;;5078649;28;19913;-12
2022/10/03 06:38:36;;;;;;;;;;;17.70;96.90;;;;;;5060758;28;20294;-12
2022/10/03 06:41:19;;;;;;;;;;;17.60;97.10;;;;;;5078774;28;19915;-12
2022/10/03 06:43:45;;;;;;;;;;;17.50;97.20;;;;;;5077698;28;19927;-12
2022/10/03 06:46:23;;;;;;;;;;;17.50;97.30;;;;;;5078299;28;19913;-12
2022/10/03 06:49:01;;;;;;;;;;;17.60;97.30;;;;;;5078554;28;19908;-12
2022/10/03 06:51:46;;;;;;;;;;;17.50;97.10;;;;;;5060466;28;19916;-12
2022/10/03 06:54:29;;;;;;;;;;;17.70;96.90;;;;;;5077214;28;19977;-12
2022/10/03 06:56:55;;;;;;;;;;;17.80;96.60;;;;;;5077269;28;19923;-12
2022/10/03 06:59:39;;;;;;;;;;;17.80;96.50;;;;;;5058837;28;19908;-12
2022/10/03 07:02:23;;;;;;;;;;;17.80;96.40;;;;;;5076550;28;19999;-12
2022/10/03 07:05:09;;;;;;;;;;;17.80;96.30;;;;;;5076950;28;19909;-12
2022/10/03 07:07:44;;;;;;;;;;;18.00;95.90;;;;;;5070118;28;19924;-12
2022/10/03 07:10:13;;;;;;;;;;;18.10;95.60;;;;;;5077171;28;19912;-12
2022/10/03 07:12:43;;;;;;;;;;;18.30;95.20;;;;;;5077244;28;20454;-12
2022/10/03 07:15:39;;;;;;;;;;;19.30;93.70;;;;;;5076800;28;19912;-12
2022/10/03 07:18:23;;;;;;;;;;;20.40;90.20;;;;;;5059654;28;19917;-12
2022/10/03 07:20:55;;;;;;;;;;;21.20;80.70;;;;;;5076249;28;20348;-12
2022/10/03 07:23:20;;;;;;;;;;;20.80;81.10;;;;;;5078046;28;19912;-29
2022/10/03 07:25:46;;;;;;;;;;;20.30;84.40;;;;;;5058800;28;19916;-12
2022/10/03 07:28:29;;;;;;;;;;;19.80;87.40;;;;;;5077045;28;19961;-12
2022/10/03 07:31:15;;;;;;;;;;;19.60;89.50;;;;;;5059002;28;20259;-12
2022/10/03 07:33:41;;;;;;;;;;;19.40;90.50;;;;;;5077146;28;19919;-12
2022/10/03 07:39:31;;;;;;;;;;;19.30;91.00;;;;;;5076647;28;19972;-12
2022/10/03 07:41:59;;;;;;;;;;;19.30;91.20;;;;;;5059388;28;19952;-12
2022/10/03 07:44:43;;;;;;;;;;;20.10;90.40;;;;;;5058728;28;19917;-12
2022/10/03 07:47:29;;;;;;;;;;;20.70;83.90;;;;;;5076004;28;19909;-12
2022/10/03 07:50:07;;;;;;;;;;;20.60;84.00;;;;;;5075168;28;19909;-12
2022/10/03 07:52:32;;;;;;;;;;;20.20;85.40;;;;;;5058742;28;19921;-12
2022/10/03 07:55:13;;;;;;;;;;;20.00;87.50;;;;;;5057506;28;19917;-12
2022/10/03 07:57:47;;;;;;;;;;;19.80;88.40;;;;;;5058185;28;19909;-12
2022/10/03 08:00:15;;;;;;;;;;;19.90;88.50;;;;;;5075359;28;19916;-12
2022/10/03 08:02:59;;;;;;;;;;;19.80;89.00;;;;;;5075641;28;19927;-13
2022/10/03 08:05:25;;;;;;;;;;;19.70;89.60;;;;;;5076317;28;19913;-12
2022/10/03 08:07:51;;;;;;;;;;;20.40;88.30;;;;;;5058558;28;19905;-12
2022/10/03 08:10:55;;;;;;;;;;;20.60;84.60;;;;;;5077323;28;19923;-12
2022/10/03 08:13:40;;;;;;;;;;;21.80;79.80;;;;;;5059779;28;20197;-12
2022/10/03 08:16:06;;;;;;;;;;;23.50;69.30;;;;;;5054871;28;19913;-12
2022/10/03 08:18:51;;;;;;;;;;;24.50;63.50;;;;;;5059769;28;19915;-12
2022/10/03 08:21:35;;;;;;;;;;;25.10;60.00;;;;;;5043201;28;19909;-12
2022/10/03 08:24:08;;;;;;;;;;;25.70;58.40;;;;;;5059995;28;19909;-12
2022/10/03 08:26:34;;;;;;;;;;;26.00;57.00;;;;;;5042792;28;19995;-12
2022/10/03 08:29:38;;;;;;;;;;;26.20;56.20;;;;;;5060495;28;20012;-12
2022/10/03 08:32:24;;;;;;;;;;;26.60;55.40;;;;;;4978940;28;19925;-13
2022/10/03 08:35:02;;;;;;;;;;;27.10;54.30;;;;;;4958947;28;20415;-12
2022/10/03 08:37:37;;;;;;;;;;;27.50;53.50;;;;;;5034046;28;19952;-13
2022/10/03 08:40:35;;;;;;;;;;;27.80;52.80;;;;;;5059383;28;19951;-13
2022/10/03 08:43:16;;;;;;;;;;;27.90;52.30;;;;;;5058814;28;19998;-13
2022/10/03 08:45:44;;;;;;;;;;;28.20;51.60;;;;;;5058467;28;19909;-13
2022/10/03 08:48:33;;;;;;;;;;;28.40;51.20;;;;;;5058803;28;20185;-13
2022/10/03 08:51:17;;;;;;;;;;;28.50;50.90;;;;;;5058407;28;20058;-13
2022/10/03 08:53:45;;;;;;;;;;;28.60;50.60;;;;;;5058664;28;19909;-13
2022/10/03 08:56:31;;;;;;;;;;;28.70;50.30;;;;;;5058171;28;19913;-13
2022/10/03 08:59:15;;;;;;;;;;;28.80;50.10;;;;;;5058373;28;19909;-13
2022/10/03 09:01:42;;;;;;;;;;;28.90;49.90;;;;;;5059244;28;19959;-13
2022/10/03 09:04:19;;;;;;;;;;;28.90;49.80;;;;;;5058611;28;19945;-13
2022/10/03 09:06:54;;;;;;;;;;;27.90;49.90;;;;;;5058873;28;19913;-13
2022/10/03 09:09:38;;;;;;;;;;;26.90;51.20;;;;;;5042015;28;20356;-13
2022/10/03 09:12:04;;;;;;;;;;;26.30;51.90;;;;;;5059117;28;20003;-13
2022/10/03 09:14:50;;;;;;;;;;;25.90;52.70;;;;;;5058845;28;20011;-13
2022/10/03 09:17:35;;;;;;;;;;;25.80;53.00;;;;;;5058876;28;20302;-13
2022/10/03 09:20:03;;;;;;;;;;;25.20;53.50;;;;;;5057951;28;20003;-13
2022/10/03 09:22:48;;;;;;;;;;;24.60;55.20;;;;;;5058575;28;20414;-13
2022/10/03 09:25:28;;;;;;;;;;;24.40;57.50;;;;;;5041434;28;19908;-13
2022/10/03 09:28:12;;;;;;;;;;;24.00;58.50;;;;;;5057900;28;19955;-13
2022/10/03 09:30:37;;;;;;;;;;;25.40;58.60;;;;;;5040520;28;19908;-13
2022/10/03 09:33:10;;;;;;;;;;;26.60;56.30;;;;;;5057859;28;20212;-13
2022/10/03 09:35:42;;;;;;;;;;;26.80;55.00;;;;;;5058406;28;19917;-13
2022/10/03 09:38:26;;;;;;;;;;;27.00;54.40;;;;;;5040753;28;19909;-13
2022/10/03 09:41:14;;;;;;;;;;;27.10;54.00;;;;;;5057955;28;19913;-13
2022/10/03 09:43:49;;;;;;;;;;;26.80;53.70;;;;;;5057619;28;19909;-13
2022/10/03 09:46:21;;;;;;;;;;;26.10;54.10;;;;;;5058058;28;20278;-13
2022/10/03 09:49:05;;;;;;;;;;;25.50;54.70;;;;;;5058427;28;19920;-13
2022/10/03 09:51:40;;;;;;;;;;;24.90;55.70;;;;;;5040522;28;19921;-13
2022/10/03 09:54:05;;;;;;;;;;;24.30;57.40;;;;;;5058050;28;19913;-13
2022/10/03 09:56:47;;;;;;;;;;;23.90;58.40;;;;;;5041235;28;20229;-13
2022/10/03 09:59:15;;;;;;;;;;;23.50;59.60;;;;;;5058241;28;19948;-13
2022/10/03 10:01:44;;;;;;;;;;;23.20;61.40;;;;;;5058263;28;20015;-13
2022/10/03 10:04:30;;;;;;;;;;;22.90;63.50;;;;;;5057929;28;19909;-13
2022/10/03 10:07:01;;;;;;;;;;;22.60;65.70;;;;;;5017161;28;20011;-13
2022/10/03 10:09:36;;;;;;;;;;;22.40;67.80;;;;;;5040720;28;19912;-13
2022/10/03 10:12:14;;;;;;;;;;;22.40;68.80;;;;;;5057394;28;20308;-13
2022/10/03 10:14:58;;;;;;;;;;;22.40;69.40;;;;;;5059661;28;19960;-13
2022/10/03 10:17:47;;;;;;;;;;;22.40;70.20;;;;;;5059478;28;19908;-13
2022/10/03 10:20:16;;;;;;;;;;;22.30;70.70;;;;;;5029208;28;20054;-13
2022/10/03 10:22:47;;;;;;;;;;;22.20;72.40;;;;;;5074955;28;20417;-13
2022/10/03 10:25:36;;;;;;;;;;;22.00;74.00;;;;;;5054323;28;19999;-13
2022/10/03 10:28:25;;;;;;;;;;;21.90;74.90;;;;;;5063761;28;19931;-13
2022/10/03 10:30:57;;;;;;;;;;;21.80;75.70;;;;;;5063606;28;19916;-13
2022/10/03 10:33:42;;;;;;;;;;;21.80;76.60;;;;;;5058320;28;20066;-12
2022/10/03 10:36:26;;;;;;;;;;;21.70;76.90;;;;;;5076928;28;19923;-12
2022/10/03 10:39:11;;;;;;;;;;;21.70;77.40;;;;;;5058518;28;19963;-12
2022/10/03 10:41:54;;;;;;;;;;;21.80;77.90;;;;;;5039809;28;19921;-12
2022/10/03 10:44:40;;;;;;;;;;;21.70;78.20;;;;;;5039990;28;19970;-12
2022/10/03 10:47:32;;;;;;;;;;;21.60;78.90;;;;;;5039686;28;19913;-12
2022/10/03 10:50:17;;;;;;;;;;;21.50;79.80;;;;;;5054630;28;19991;-12
2022/10/03 10:53:01;;;;;;;;;;;21.40;80.80;;;;;;5055478;28;19912;-12
2022/10/03 10:55:35;;;;;;;;;;;21.30;81.60;;;;;;5056045;28;20170;-12
2022/10/03 10:58:20;;;;;;;;;;;21.30;82.00;;;;;;5056391;28;20252;-12
2022/10/03 11:01:06;;;;;;;;;;;21.20;82.70;;;;;;5057046;28;20205;-12
2022/10/03 11:03:40;;;;;;;;;;;21.20;83.40;;;;;;5006035;28;19919;-12
2022/10/03 11:06:26;;;;;;;;;;;21.10;83.90;;;;;;5056162;28;19912;-12
2022/10/03 11:08:58;;;;;;;;;;;21.10;84.60;;;;;;5038722;28;19955;-12
2022/10/03 11:11:38;;;;;;;;;;;21.00;85.00;;;;;;5056662;28;20449;-12
2022/10/03 11:14:06;;;;;;;;;;;21.00;85.40;;;;;;5054568;28;19909;-12
2022/10/03 11:16:53;;;;;;;;;;;21.00;85.60;;;;;;5056240;28;19916;-12
2022/10/03 11:19:28;;;;;;;;;;;21.10;85.70;;;;;;5039184;28;19908;-12
2022/10/03 11:22:20;;;;;;;;;;;21.10;85.60;;;;;;5055905;28;19958;-12
2022/10/03 11:25:07;;;;;;;;;;;21.10;85.70;;;;;;5051035;28;19917;-12
2022/10/03 11:27:42;;;;;;;;;;;21.10;85.70;;;;;;5055849;28;19920;-12
2022/10/03 11:30:19;;;;;;;;;;;21.10;86.50;;;;;;5055665;28;20004;-12
2022/10/03 11:33:04;;;;;;;;;;;21.10;86.00;;;;;;5055722;28;19942;-12
2022/10/03 11:35:48;;;;;;;;;;;21.00;86.20;;;;;;5055993;28;19913;-12
2022/10/03 11:38:31;;;;;;;;;;;21.00;86.70;;;;;;5055313;28;20218;-12
2022/10/03 11:41:00;;;;;;;;;;;20.90;87.10;;;;;;5055873;28;19920;-12
2022/10/03 11:43:39;;;;;;;;;;;20.90;87.40;;;;;;5055291;28;20201;-12
2022/10/03 11:46:20;;;;;;;;;;;21.00;87.50;;;;;;5037815;28;19948;-12
2022/10/03 11:49:03;;;;;;;;;;;20.90;87.70;;;;;;5055886;28;19970;-12
2022/10/03 11:51:28;;;;;;;;;;;20.90;88.00;;;;;;5038939;28;19921;-12
2022/10/03 11:53:57;;;;;;;;;;;20.90;88.40;;;;;;5054270;28;19971;-12
2022/10/03 11:56:36;;;;;;;;;;;20.80;88.80;;;;;;5055539;28;19913;-12
2022/10/03 11:59:21;;;;;;;;;;;20.80;89.10;;;;;;5038422;28;19909;-12
2022/10/03 12:01:50;;;;;;;;;;;20.80;89.20;;;;;;5055087;28;19948;-12
2022/10/03 12:04:38;;;;;;;;;;;20.80;89.30;;;;;;5054712;28;19917;-12
2022/10/03 12:10:10;;;;;;;;;;;20.80;89.80;;;;;;5055686;28;20232;-12
2022/10/03 12:12:43;;;;;;;;;;;20.80;89.90;;;;;;5055056;28;20364;-12
2022/10/03 12:15:27;;;;;;;;;;;20.80;90.00;;;;;;5055883;28;19924;-12
2022/10/03 12:18:05;;;;;;;;;;;20.80;90.10;;;;;;5038493;28;19971;-12
2022/10/03 12:20:34;;;;;;;;;;;20.80;90.10;;;;;;5055735;28;19909;-12
2022/10/03 12:23:06;;;;;;;;;;;20.70;90.20;;;;;;5056519;28;19909;-12
2022/10/03 12:25:33;;;;;;;;;;;20.70;90.20;;;;;;5038440;28;19916;-12
2022/10/03 12:28:14;;;;;;;;;;;20.70;90.30;;;;;;5055802;28;19995;-12
2022/10/03 12:31:03;;;;;;;;;;;20.70;90.30;;;;;;5055901;28;20000;-12
2022/10/03 12:33:39;;;;;;;;;;;20.70;90.30;;;;;;5054617;28;19909;-12
2022/10/03 12:36:19;;;;;;;;;;;20.70;90.40;;;;;;5055305;28;20007;-12
2022/10/03 12:39:03;;;;;;;;;;;20.70;90.50;;;;;;5037970;28;19995;-12
2022/10/03 12:41:44;;;;;;;;;;;20.70;90.50;;;;;;5055881;28;19916;-12
2022/10/03 12:44:10;;;;;;;;;;;20.70;90.80;;;;;;5054766;28;20306;-12
2022/10/03 12:46:49;;;;;;;;;;;20.70;90.60;;;;;;5054278;28;19908;-12
2022/10/03 12:49:24;;;;;;;;;;;20.70;90.70;;;;;;5055026;28;19908;-12
2022/10/03 12:51:53;;;;;;;;;;;20.60;90.80;;;;;;5055000;28;19917;-12
2022/10/03 12:54:29;;;;;;;;;;;20.60;90.80;;;;;;5054571;28;19920;-12
2022/10/03 12:57:07;;;;;;;;;;;20.60;90.90;;;;;;5057734;28;19962;-12
2022/10/03 12:59:33;;;;;;;;;;;20.60;91.10;;;;;;5059083;28;19916;-12
2022/10/03 13:02:11;;;;;;;;;;;20.60;91.20;;;;;;5059119;28;19913;-12
2022/10/03 13:04:42;;;;;;;;;;;20.60;91.30;;;;;;5057187;28;19913;-12
2022/10/03 13:07:27;;;;;;;;;;;20.60;91.40;;;;;;5058401;28;20296;-12
2022/10/03 13:09:55;;;;;;;;;;;20.60;91.40;;;;;;5058723;28;20224;-12
2022/10/03 13:12:21;;;;;;;;;;;20.60;91.40;;;;;;5058845;28;19913;-12
2022/10/03 13:15:05;;;;;;;;;;;20.60;91.40;;;;;;5058068;28;19939;-12
2022/10/03 13:17:36;;;;;;;;;;;20.60;91.50;;;;;;5058029;28;19909;-12
2022/10/03 13:20:09;;;;;;;;;;;20.60;91.40;;;;;;5058036;28;20008;-12
2022/10/03 13:22:50;;;;;;;;;;;20.60;91.50;;;;;;5057853;28;20418;-12
2022/10/03 13:25:51;;;;;;;;;;;20.60;91.50;;;;;;5059102;28;19909;-12
2022/10/03 13:28:25;;;;;;;;;;;20.60;91.50;;;;;;4958482;29;19977;-12
2022/10/03 13:30:52;;;;;;;;;;;20.60;91.50;;;;;;5042536;28;19919;-12
2022/10/03 13:33:27;;;;;;;;;;;20.60;91.60;;;;;;5040558;28;19996;-12
2022/10/03 13:35:58;;;;;;;;;;;20.60;91.50;;;;;;5057497;28;19920;-12
2022/10/03 13:38:36;;;;;;;;;;;20.60;91.50;;;;;;5057762;28;19913;-12
2022/10/03 13:41:06;;;;;;;;;;;20.60;91.50;;;;;;5057420;28;20441;-12
2022/10/03 13:43:36;;;;;;;;;;;20.70;91.60;;;;;;5057892;28;19909;-12
2022/10/03 13:46:06;;;;;;;;;;;20.70;91.60;;;;;;5056623;28;20210;-12
2022/10/03 13:48:33;;;;;;;;;;;20.70;91.70;;;;;;5040089;28;19909;-12
2022/10/03 13:51:05;;;;;;;;;;;20.70;91.60;;;;;;5040197;28;20332;-12
2022/10/03 13:53:35;;;;;;;;;;;20.70;91.60;;;;;;5057403;28;19956;-12
2022/10/03 13:56:08;;;;;;;;;;;20.70;91.50;;;;;;5056572;28;20189;-12
2022/10/03 13:58:49;;;;;;;;;;;20.80;91.50;;;;;;5057285;28;20394;-12
2022/10/03 14:01:20;;;;;;;;;;;20.70;91.50;;;;;;5056846;28;19944;-12
2022/10/03 14:03:56;;;;;;;;;;;20.70;91.60;;;;;;5056428;28;19920;-12
2022/10/03 14:06:27;;;;;;;;;;;20.70;91.60;;;;;;5056583;28;19908;-12
2022/10/03 14:08:53;;;;;;;;;;;20.70;91.60;;;;;;5055493;28;19919;-12
2022/10/03 14:11:31;;;;;;;;;;;20.70;91.70;;;;;;5057346;28;19995;-12
2022/10/03 14:14:15;;;;;;;;;;;20.70;91.70;;;;;;5057409;28;19937;-12
2022/10/03 14:16:46;;;;;;;;;;;20.80;91.70;;;;;;5057529;28;20011;-12
2022/10/03 14:19:15;;;;;;;;;;;20.80;91.70;;;;;;5056876;28;19909;-12
2022/10/03 14:21:48;;;;;;;;;;;20.80;91.60;;;;;;5056083;28;19975;-12
2022/10/03 14:24:46;;;;;;;;;;;20.80;91.60;;;;;;5039036;28;19909;-12
2022/10/03 14:27:28;;;;;;;;;;;20.90;91.50;;;;;;5002967;28;19952;-12
2022/10/03 14:29:57;;;;;;;;;;;20.90;91.50;;;;;;5057208;28;19909;-12
2022/10/03 14:32:26;;;;;;;;;;;20.90;91.50;;;;;;5056053;28;19920;-12
2022/10/03 14:35:18;;;;;;;;;;;20.90;91.50;;;;;;5057002;28;19912;-12
2022/10/03 14:38:06;;;;;;;;;;;20.90;91.50;;;;;;5057143;28;19908;-12
2022/10/03 14:40:41;;;;;;;;;;;20.90;91.50;;;;;;5045895;28;19996;-12
2022/10/03 14:43:07;;;;;;;;;;;20.80;91.60;;;;;;5056893;28;19913;-12
2022/10/03 14:45:37;;;;;;;;;;;20.80;91.60;;;;;;5055773;28;20426;-12
2022/10/03 14:48:07;;;;;;;;;;;20.80;91.70;;;;;;5038397;28;19999;-12
2022/10/03 14:50:33;;;;;;;;;;;20.80;91.80;;;;;;5055705;28;19951;-12
2022/10/03 14:53:07;;;;;;;;;;;20.80;92.00;;;;;;5054921;28;19909;-12
2022/10/03 14:55:42;;;;;;;;;;;20.80;92.00;;;;;;5037961;28;20011;-12
2022/10/03 14:58:31;;;;;;;;;;;20.80;92.10;;;;;;5037275;28;19913;-12
2022/10/03 15:01:09;;;;;;;;;;;20.80;92.20;;;;;;5055372;28;19913;-12
2022/10/03 15:03:38;;;;;;;;;;;20.70;92.20;;;;;;5038574;28;20275;-12
2022/10/03 15:06:09;;;;;;;;;;;20.80;92.20;;;;;;5045513;28;19947;-12
2022/10/03 15:08:38;;;;;;;;;;;20.80;92.30;;;;;;5067370;28;20325;-12
2022/10/03 15:11:05;;;;;;;;;;;20.80;92.20;;;;;;5061892;28;19938;-12
2022/10/03 15:13:34;;;;;;;;;;;20.80;92.30;;;;;;5046086;28;19909;-12
2022/10/03 15:16:00;;;;;;;;;;;20.80;92.40;;;;;;5059132;28;19994;-12
2022/10/03 15:18:26;;;;;;;;;;;20.80;92.50;;;;;;5039014;28;19920;-12
2022/10/03 15:20:53;;;;;;;;;;;20.80;92.50;;;;;;5069229;28;19909;-12
2022/10/03 15:23:36;;;;;;;;;;;20.80;92.60;;;;;;5058308;28;19909;-12
2022/10/03 15:26:03;;;;;;;;;;;20.80;92.70;;;;;;5074680;28;20137;-12